Geiyo K — V7QW4 — position and weather

sailwx.info

Track history (hours):
 
Tides and Currents Weather Stations Pressure Air Temp Water Temp Dewpoint Dewpoint Depression Visibility Wind Speed Wind Dir Waves Ship Positions

Geiyo K

Last reported at 2018-Jan-30 20:36 UTC. Time now 2018-Feb-19 20:10 UTC.
Position N 01°15' E 103°23'.
Warning: this ship's position is 19 days out of date.

Length 190 m; draft 8.8 m.

Type: Cargo ship. MMSI: 538006748.

Date/timePositionNaut miles runAvg speedWind from/ knotsBaromVisibWave heightAir tempDewpointWater temp
2018-Jan-30 20:36N 01°15' E 103°23'414.4
2018-Jan-30 20:21N 01°14' E 103°26'514.3
2018-Jan-30 20:00N 01°13' E 103°31'714.7
2018-Jan-30 19:30N 01°11' E 103°38'713.4
2018-Jan-30 19:00N 01°09' E 103°44'815.1
2018-Jan-30 18:30N 01°12' E 103°51'714.2
2018-Jan-30 18:01N 01°15' E 103°57'4 1.9
2018-Jan-30 15:51N 01°18' E 104°00'0 0.0
2018-Jan-30 14:15N 01°18' E 104°00'0 0.1
2018-Jan-30 13:03N 01°18' E 104°00'0 0.1
2018-Jan-30 13:00N 01°18' E 104°00'0 0.1
2018-Jan-30 11:03N 01°17' E 104°00'0 0.2
2018-Jan-30 10:18N 01°18' E 104°00'0 0.0
2018-Jan-30 09:27N 01°18' E 104°00'2 3.1
2018-Jan-30 08:58N 01°16' E 104°00'  
2018-Jan-21 10:21N 33°13' E 132°02'5 9.9
2018-Jan-21 09:53N 33°16' E 131°59'3 9.0
2018-Jan-21 09:30N 33°20' E 131°59'712.7
2018-Jan-21 09:00N 33°26' E 132°03'1213.8
2018-Jan-21 08:07N 33°34' E 132°13'214.1
2018-Jan-21 07:58N 33°36' E 132°15'714.1
2018-Jan-21 07:30N 33°40' E 132°20'814.7
2018-Jan-21 06:58N 33°46' E 132°27'815.5
2018-Jan-21 06:26N 33°52' E 132°34'615.2
2018-Jan-21 06:00N 33°56' E 132°40'2713.4
2018-Jan-21 03:58N 34°18' E 132°60'  
Track history (hours):
 
Tides and Currents Weather Stations Pressure Air Temp Water Temp Dewpoint Dewpoint Depression Visibility Wind Speed Wind Dir Waves Ship Positions

Geiyo K

Last reported at 2018-Jan-30 20:36 UTC. Time now 2018-Feb-19 20:10 UTC.
Position N 01°15' E 103°23'.
Warning: this ship's position is 19 days out of date.

Length 190 m; draft 8.8 m.

Type: Cargo ship. MMSI: 538006748.

Date/timePositionNaut miles runAvg speedWind from/ knotsBaromVisibWave heightAir tempDewpointWater temp
2018-Jan-30 20:36N 01°15' E 103°23'414.4
2018-Jan-30 20:21N 01°14' E 103°26'514.3
2018-Jan-30 20:00N 01°13' E 103°31'714.7
2018-Jan-30 19:30N 01°11' E 103°38'713.4
2018-Jan-30 19:00N 01°09' E 103°44'815.1
2018-Jan-30 18:30N 01°12' E 103°51'714.2
2018-Jan-30 18:01N 01°15' E 103°57'4 1.9
2018-Jan-30 15:51N 01°18' E 104°00'0 0.0
2018-Jan-30 14:15N 01°18' E 104°00'0 0.1
2018-Jan-30 13:03N 01°18' E 104°00'0 0.1
2018-Jan-30 13:00N 01°18' E 104°00'0 0.1
2018-Jan-30 11:03N 01°17' E 104°00'0 0.2
2018-Jan-30 10:18N 01°18' E 104°00'0 0.0
2018-Jan-30 09:27N 01°18' E 104°00'2 3.1
2018-Jan-30 08:58N 01°16' E 104°00'  
2018-Jan-21 10:21N 33°13' E 132°02'5 9.9
2018-Jan-21 09:53N 33°16' E 131°59'3 9.0
2018-Jan-21 09:30N 33°20' E 131°59'712.7
2018-Jan-21 09:00N 33°26' E 132°03'1213.8
2018-Jan-21 08:07N 33°34' E 132°13'214.1
2018-Jan-21 07:58N 33°36' E 132°15'714.1
2018-Jan-21 07:30N 33°40' E 132°20'814.7
2018-Jan-21 06:58N 33°46' E 132°27'815.5
2018-Jan-21 06:26N 33°52' E 132°34'615.2
2018-Jan-21 06:00N 33°56' E 132°40'2713.4
2018-Jan-21 03:58N 34°18' E 132°60'  

Dump ship's entire track history